Time;durP1;ratioP1;P1;durP2;ratioP2;P2;SDS_P1;SDS_P2;PMS_P1;PMS_P2;Temp;Humidity;BMP_temperature;BMP_pressure;BME280_temperature;BME280_humidity;BME280_pressure;Samples;Min_cycle;Max_cycle;Signal;HPM_P1;HPM_P2
2020/12/19 00:02:12;;;;;;;20.00;13.90;;;;;;;;;;5054677;28;20409;-60
2020/12/19 00:04:38;;;;;;;24.85;13.15;;;;;;;;;;5054861;28;20426;-60
2020/12/19 00:07:04;;;;;;;22.95;14.23;;;;;;;;;;5054522;28;20024;-60
2020/12/19 00:09:31;;;;;;;24.98;15.43;;;;;;;;;;5054378;28;20056;-61
2020/12/19 00:11:57;;;;;;;28.13;15.68;;;;;;;;;;5054461;28;20021;-60
2020/12/19 00:14:23;;;;;;;25.10;15.05;;;;;;;;;;5054784;28;20065;-60
2020/12/19 00:16:49;;;;;;;26.70;15.38;;;;;;;;;;5054393;28;20032;-61
2020/12/19 00:19:15;;;;;;;26.55;15.40;;;;;;;;;;5054383;28;20474;-60
2020/12/19 00:21:42;;;;;;;25.60;15.23;;;;;;;;;;5054433;28;20448;-60
2020/12/19 00:24:08;;;;;;;25.98;15.32;;;;;;;;;;5054363;28;20143;-60
2020/12/19 00:26:35;;;;;;;25.10;14.75;;;;;;;;;;5054456;28;20425;-60
2020/12/19 00:29:01;;;;;;;27.45;15.35;;;;;;;;;;5054103;28;20058;-60
2020/12/19 00:31:27;;;;;;;26.20;15.45;;;;;;;;;;5053982;28;20025;-61
2020/12/19 00:33:54;;;;;;;30.40;16.38;;;;;;;;;;5053914;28;20025;-60
2020/12/19 00:36:20;;;;;;;26.17;15.25;;;;;;;;;;5036143;28;20389;-60
2020/12/19 00:38:46;;;;;;;26.80;14.73;;;;;;;;;;5054267;28;20315;-60
2020/12/19 00:41:30;;;;;;;20.65;13.13;;;;;;;;;;5054166;28;20025;-60
2020/12/19 00:43:56;;;;;;;19.17;11.88;;;;;;;;;;5053827;28;20171;-60
2020/12/19 00:46:23;;;;;;;17.42;9.95;;;;;;;;;;5053982;28;20151;-60
2020/12/19 00:48:49;;;;;;;15.50;8.63;;;;;;;;;;5053787;28;20036;-61
2020/12/19 00:51:19;;;;;;;13.90;9.05;;;;;;;;;;5053998;28;20059;-60
2020/12/19 00:53:47;;;;;;;13.77;9.18;;;;;;;;;;5053665;28;20029;-60
2020/12/19 00:56:23;;;;;;;13.25;8.98;;;;;;;;;;5053506;28;20063;-60
2020/12/19 00:58:50;;;;;;;12.80;8.27;;;;;;;;;;5053642;28;20036;-60
2020/12/19 01:01:16;;;;;;;16.52;9.23;;;;;;;;;;5052836;28;20021;-61
2020/12/19 01:03:43;;;;;;;14.43;9.02;;;;;;;;;;5053450;28;20041;-60
2020/12/19 01:06:13;;;;;;;14.30;9.43;;;;;;;;;;5053425;28;20036;-60
2020/12/19 01:08:39;;;;;;;14.00;9.10;;;;;;;;;;5053585;28;20037;-60
2020/12/19 01:11:05;;;;;;;14.65;8.90;;;;;;;;;;5053289;28;20397;-61
2020/12/19 01:13:31;;;;;;;13.65;9.20;;;;;;;;;;5053395;28;20498;-60
2020/12/19 01:15:57;;;;;;;17.70;9.23;;;;;;;;;;5053204;28;20474;-60
2020/12/19 01:18:23;;;;;;;15.27;8.95;;;;;;;;;;5053331;28;20032;-60
2020/12/19 01:20:49;;;;;;;14.00;8.73;;;;;;;;;;5053287;28;20491;-61
2020/12/19 01:23:15;;;;;;;18.58;8.55;;;;;;;;;;5035220;28;20037;-60
2020/12/19 01:25:42;;;;;;;14.07;8.45;;;;;;;;;;5053323;28;20033;-60
2020/12/19 01:28:08;;;;;;;14.75;9.40;;;;;;;;;;5053513;28;20500;-60
2020/12/19 01:30:34;;;;;;;15.05;8.77;;;;;;;;;;5053135;28;20519;-60
2020/12/19 01:33:00;;;;;;;13.73;8.57;;;;;;;;;;5053006;28;20025;-60
2020/12/19 01:35:26;;;;;;;15.90;8.90;;;;;;;;;;5053153;28;20029;-60
2020/12/19 01:37:52;;;;;;;17.63;9.23;;;;;;;;;;5053061;28;20021;-61
2020/12/19 01:40:18;;;;;;;17.00;9.95;;;;;;;;;;5053505;28;20109;-61
2020/12/19 01:42:45;;;;;;;15.55;9.48;;;;;;;;;;5052905;28;20057;-61
2020/12/19 01:45:11;;;;;;;16.05;10.23;;;;;;;;;;5053092;28;20041;-61
2020/12/19 01:47:38;;;;;;;16.25;10.18;;;;;;;;;;5052896;28;20036;-61
2020/12/19 01:50:05;;;;;;;18.52;10.30;;;;;;;;;;5053196;28;20525;-61
2020/12/19 01:52:32;;;;;;;16.67;9.23;;;;;;;;;;5052883;28;20470;-61
2020/12/19 01:54:58;;;;;;;13.27;9.10;;;;;;;;;;5052914;28;20032;-61
2020/12/19 01:57:31;;;;;;;14.60;9.52;;;;;;;;;;5052665;28;20424;-61
2020/12/19 01:59:57;;;;;;;15.73;9.52;;;;;;;;;;5052981;28;20040;-61
2020/12/19 02:02:24;;;;;;;17.00;10.02;;;;;;;;;;5052705;28;20025;-61
2020/12/19 02:04:50;;;;;;;17.50;11.75;;;;;;;;;;5052792;28;20032;-61
2020/12/19 02:07:17;;;;;;;20.75;13.13;;;;;;;;;;5034827;28;20041;-61
2020/12/19 02:09:44;;;;;;;21.52;13.05;;;;;;;;;;5052871;28;20132;-61
2020/12/19 02:12:10;;;;;;;21.27;12.10;;;;;;;;;;5055222;28;20021;-61
2020/12/19 02:14:37;;;;;;;19.55;11.52;;;;;;;;;;5056904;28;20029;-61
2020/12/19 02:17:05;;;;;;;18.27;11.18;;;;;;;;;;5056663;28;20066;-61
2020/12/19 02:19:32;;;;;;;20.85;10.80;;;;;;;;;;5056613;28;20025;-61
2020/12/19 02:21:58;;;;;;;17.85;10.43;;;;;;;;;;5056638;28;20031;-61
2020/12/19 02:24:25;;;;;;;20.73;10.95;;;;;;;;;;5057171;28;20134;-61
2020/12/19 02:26:52;;;;;;;18.83;11.68;;;;;;;;;;5056232;28;20025;-61
2020/12/19 02:29:18;;;;;;;22.15;12.48;;;;;;;;;;5056425;28;20040;-61
2020/12/19 02:31:45;;;;;;;20.88;11.30;;;;;;;;;;5056224;28;20028;-61
2020/12/19 02:34:11;;;;;;;19.58;11.20;;;;;;;;;;5056625;28;20036;-61
2020/12/19 02:36:38;;;;;;;24.83;12.10;;;;;;;;;;5056677;28;20112;-61
2020/12/19 02:39:04;;;;;;;23.15;11.70;;;;;;;;;;5056282;28;20520;-61
2020/12/19 02:41:33;;;;;;;20.08;12.02;;;;;;;;;;5056385;28;20087;-61
2020/12/19 02:44:00;;;;;;;17.65;11.13;;;;;;;;;;5056044;28;20041;-61
2020/12/19 02:46:26;;;;;;;21.15;10.88;;;;;;;;;;5056461;28;20025;-61
2020/12/19 02:48:52;;;;;;;20.70;10.65;;;;;;;;;;5055922;28;20474;-61
2020/12/19 02:51:18;;;;;;;19.42;11.40;;;;;;;;;;5056169;28;20039;-60
2020/12/19 02:53:44;;;;;;;18.13;10.75;;;;;;;;;;5055910;28;20029;-61
2020/12/19 02:56:10;;;;;;;19.08;10.88;;;;;;;;;;5055846;28;20017;-61
2020/12/19 02:58:36;;;;;;;15.10;9.35;;;;;;;;;;5055736;28;20029;-61
2020/12/19 03:01:03;;;;;;;16.13;9.23;;;;;;;;;;5056051;28;20029;-61
2020/12/19 03:03:29;;;;;;;13.25;8.32;;;;;;;;;;5055644;28;20033;-61
2020/12/19 03:05:55;;;;;;;11.60;7.85;;;;;;;;;;5055805;28;20029;-61
2020/12/19 03:08:21;;;;;;;13.25;7.95;;;;;;;;;;5055875;28;20035;-61
2020/12/19 03:10:48;;;;;;;12.95;8.52;;;;;;;;;;5055532;28;20053;-61
2020/12/19 03:13:14;;;;;;;14.25;9.13;;;;;;;;;;5055930;28;20126;-61
2020/12/19 03:15:40;;;;;;;12.35;8.30;;;;;;;;;;5055587;28;20024;-61
2020/12/19 03:18:06;;;;;;;11.93;8.55;;;;;;;;;;5055515;28;20029;-61
2020/12/19 03:20:32;;;;;;;18.42;9.63;;;;;;;;;;5055539;28;20378;-61
2020/12/19 03:22:58;;;;;;;12.52;8.70;;;;;;;;;;5054159;28;20037;-61
2020/12/19 03:25:26;;;;;;;14.30;8.70;;;;;;;;;;5055392;28;20017;-61
2020/12/19 03:27:52;;;;;;;13.30;8.35;;;;;;;;;;5055118;28;20474;-61
2020/12/19 03:30:18;;;;;;;13.65;8.55;;;;;;;;;;5055578;28;20369;-61
2020/12/19 03:32:44;;;;;;;14.27;9.80;;;;;;;;;;5055151;28;20032;-61
2020/12/19 03:35:10;;;;;;;15.30;8.73;;;;;;;;;;5055419;28;20025;-61
2020/12/19 03:37:36;;;;;;;14.90;9.20;;;;;;;;;;5055468;28;20441;-61
2020/12/19 03:40:04;;;;;;;12.40;8.98;;;;;;;;;;5055088;28;20494;-61
2020/12/19 03:42:30;;;;;;;14.35;9.38;;;;;;;;;;5055172;28;20470;-61
2020/12/19 03:44:56;;;;;;;15.68;9.80;;;;;;;;;;5054987;28;20029;-61
2020/12/19 03:47:22;;;;;;;14.82;8.55;;;;;;;;;;5054971;28;20052;-61
2020/12/19 03:49:48;;;;;;;15.68;9.43;;;;;;;;;;5054936;28;20025;-61
2020/12/19 03:52:14;;;;;;;15.05;8.98;;;;;;;;;;5054937;28;20025;-61
2020/12/19 03:54:40;;;;;;;14.45;9.82;;;;;;;;;;5054769;28;20023;-61
2020/12/19 03:57:06;;;;;;;15.95;8.80;;;;;;;;;;5055054;28;20107;-61
2020/12/19 03:59:33;;;;;;;28.20;9.45;;;;;;;;;;5054890;28;20021;-61
2020/12/19 04:01:59;;;;;;;19.23;9.20;;;;;;;;;;5054764;28;20036;-61
2020/12/19 04:04:25;;;;;;;15.65;9.32;;;;;;;;;;5054480;28;20029;-61
2020/12/19 04:06:51;;;;;;;13.63;8.93;;;;;;;;;;5054644;28;20025;-61
2020/12/19 04:09:17;;;;;;;17.77;9.20;;;;;;;;;;5054485;28;20052;-60
2020/12/19 04:11:43;;;;;;;17.23;9.15;;;;;;;;;;5054541;28;20048;-60
2020/12/19 04:14:09;;;;;;;13.90;8.85;;;;;;;;;;5054668;28;20025;-60
2020/12/19 04:16:35;;;;;;;14.23;8.80;;;;;;;;;;5054749;28;20424;-60
2020/12/19 04:19:02;;;;;;;13.60;8.52;;;;;;;;;;5054327;28;20033;-60
2020/12/19 04:21:28;;;;;;;15.90;8.98;;;;;;;;;;5054347;28;20021;-60
2020/12/19 04:23:54;;;;;;;16.40;8.98;;;;;;;;;;5054006;28;20064;-60
2020/12/19 04:26:20;;;;;;;15.40;8.35;;;;;;;;;;5054263;28;20028;-60
2020/12/19 04:28:46;;;;;;;19.38;9.65;;;;;;;;;;5054012;28;20413;-60
2020/12/19 04:31:12;;;;;;;18.95;9.65;;;;;;;;;;5054086;28;20104;-61
2020/12/19 04:33:38;;;;;;;13.07;8.73;;;;;;;;;;5054004;28;20029;-61
2020/12/19 04:36:04;;;;;;;14.90;9.25;;;;;;;;;;5053826;28;20036;-60
2020/12/19 04:38:31;;;;;;;15.40;9.00;;;;;;;;;;5054001;28;20486;-61
2020/12/19 04:40:57;;;;;;;13.00;8.80;;;;;;;;;;5053870;28;20032;-61
2020/12/19 04:43:25;;;;;;;17.00;9.15;;;;;;;;;;5053957;28;20033;-60
2020/12/19 04:45:51;;;;;;;14.40;9.02;;;;;;;;;;5054234;28;20036;-60
2020/12/19 04:48:18;;;;;;;16.00;9.68;;;;;;;;;;5053760;28;20482;-60
2020/12/19 04:50:46;;;;;;;15.27;9.77;;;;;;;;;;5053824;28;20029;-61
2020/12/19 04:53:16;;;;;;;18.52;9.30;;;;;;;;;;5053670;28;20074;-61
2020/12/19 04:55:43;;;;;;;16.40;9.35;;;;;;;;;;5053632;28;20078;-60
2020/12/19 04:58:18;;;;;;;14.68;8.93;;;;;;;;;;5053841;28;20033;-60
2020/12/19 05:00:44;;;;;;;15.73;9.10;;;;;;;;;;5053521;28;20060;-60
2020/12/19 05:03:10;;;;;;;14.85;9.52;;;;;;;;;;5053554;28;20039;-60
2020/12/19 05:05:43;;;;;;;18.55;9.77;;;;;;;;;;5053644;28;20559;-60
2020/12/19 05:08:09;;;;;;;17.75;9.77;;;;;;;;;;5053778;28;20132;-60
2020/12/19 05:10:36;;;;;;;19.80;9.63;;;;;;;;;;5053258;28;20045;-60
2020/12/19 05:13:02;;;;;;;16.42;9.75;;;;;;;;;;5053508;28;20078;-60
2020/12/19 05:15:28;;;;;;;21.90;10.70;;;;;;;;;;5053280;28;20524;-60
2020/12/19 05:17:55;;;;;;;15.75;10.73;;;;;;;;;;5053678;28;20070;-61
2020/12/19 05:20:22;;;;;;;15.65;9.15;;;;;;;;;;5053256;28;20033;-61
2020/12/19 05:22:49;;;;;;;17.63;10.90;;;;;;;;;;5053260;28;20107;-61
2020/12/19 05:25:18;;;;;;;16.65;9.60;;;;;;;;;;5053170;28;20439;-61
2020/12/19 05:27:45;;;;;;;16.05;9.75;;;;;;;;;;5053086;28;20021;-61
2020/12/19 05:30:11;;;;;;;21.45;10.43;;;;;;;;;;5053154;28;20036;-61
2020/12/19 05:32:44;;;;;;;23.42;10.80;;;;;;;;;;5053449;28;20108;-61
2020/12/19 05:35:10;;;;;;;14.80;9.23;;;;;;;;;;5053098;28;20025;-61
2020/12/19 05:37:36;;;;;;;17.20;9.55;;;;;;;;;;5053328;28;20452;-61
2020/12/19 05:40:10;;;;;;;20.98;10.68;;;;;;;;;;5052938;28;20017;-61
2020/12/19 05:42:37;;;;;;;18.30;10.45;;;;;;;;;;5053313;28;20049;-61
2020/12/19 05:45:12;;;;;;;25.33;11.68;;;;;;;;;;5052982;28;20029;-61
2020/12/19 05:47:38;;;;;;;17.17;10.82;;;;;;;;;;5059325;28;20021;-61
2020/12/19 05:50:04;;;;;;;21.55;10.65;;;;;;;;;;5059550;28;20083;-61
2020/12/19 05:52:32;;;;;;;19.90;11.70;;;;;;;;;;5059404;28;20025;-61
2020/12/19 05:54:59;;;;;;;19.05;10.68;;;;;;;;;;5059917;28;20032;-61
2020/12/19 05:57:27;;;;;;;18.10;11.38;;;;;;;;;;5059826;28;20037;-61
2020/12/19 05:59:54;;;;;;;20.40;12.07;;;;;;;;;;5059481;28;20017;-60
2020/12/19 06:02:21;;;;;;;23.75;13.88;;;;;;;;;;5059401;28;20053;-61
2020/12/19 06:04:47;;;;;;;24.88;12.68;;;;;;;;;;5059592;28;20385;-60
2020/12/19 06:07:14;;;;;;;40.60;14.63;;;;;;;;;;5059473;28;20025;-59
2020/12/19 06:09:42;;;;;;;27.25;13.80;;;;;;;;;;5059316;28;20056;-61
2020/12/19 06:12:15;;;;;;;25.50;13.35;;;;;;;;;;5059816;28;20389;-60
2020/12/19 06:14:42;;;;;;;22.65;12.73;;;;;;;;;;5059762;28;20047;-61
2020/12/19 06:17:13;;;;;;;24.90;13.95;;;;;;;;;;5059402;28;20029;-61
2020/12/19 06:19:41;;;;;;;20.88;11.40;;;;;;;;;;5059437;28;20096;-61
2020/12/19 06:22:07;;;;;;;18.33;12.00;;;;;;;;;;5059636;28;20029;-61
2020/12/19 06:24:40;;;;;;;19.33;11.32;;;;;;;;;;5059548;28;20044;-61
2020/12/19 06:27:18;;;;;;;16.98;11.00;;;;;;;;;;5059227;28;20116;-60
2020/12/19 06:29:45;;;;;;;17.55;10.25;;;;;;;;;;5059264;28;20032;-60
2020/12/19 06:32:21;;;;;;;17.73;9.95;;;;;;;;;;5059511;28;20029;-61
2020/12/19 06:35:16;;;;;;;17.10;10.25;;;;;;;;;;5059127;28;20126;-60
2020/12/19 06:37:42;;;;;;;24.08;12.32;;;;;;;;;;5042177;28;20033;-61
2020/12/19 06:40:13;;;;;;;24.02;10.80;;;;;;;;;;5059060;28;20037;-61
2020/12/19 06:42:39;;;;;;;16.58;10.57;;;;;;;;;;5059085;28;20545;-62
2020/12/19 06:45:41;;;;;;;20.27;10.68;;;;;;;;;;5059197;28;20359;-60
2020/12/19 06:48:27;;;;;;;17.38;10.30;;;;;;;;;;4978167;28;20023;-60
2020/12/19 06:50:59;;;;;;;22.67;11.70;;;;;;;;;;5054079;28;20124;-60
2020/12/19 06:53:27;;;;;;;21.48;11.65;;;;;;;;;;5059364;28;20033;-60
2020/12/19 06:55:53;;;;;;;20.92;11.48;;;;;;;;;;5058973;28;20033;-61
2020/12/19 06:58:30;;;;;;;19.63;11.75;;;;;;;;;;5057314;28;20035;-61
2020/12/19 07:00:56;;;;;;;18.67;12.05;;;;;;;;;;5055810;28;20025;-60
2020/12/19 07:03:36;;;;;;;21.77;12.57;;;;;;;;;;5055717;28;20025;-60
2020/12/19 07:06:09;;;;;;;26.95;12.80;;;;;;;;;;5055580;28;20036;-60
2020/12/19 07:08:35;;;;;;;23.40;13.73;;;;;;;;;;5055641;28;20028;-60
2020/12/19 07:11:01;;;;;;;20.88;12.02;;;;;;;;;;5055502;28;20120;-60
2020/12/19 07:13:48;;;;;;;24.75;12.93;;;;;;;;;;5054776;28;20071;-59
2020/12/19 07:16:14;;;;;;;24.52;13.27;;;;;;;;;;5041802;28;20474;-60
2020/12/19 07:18:40;;;;;;;22.92;14.10;;;;;;;;;;5053537;28;20021;-59
2020/12/19 07:21:08;;;;;;;29.50;14.23;;;;;;;;;;5055441;28;20024;-59
2020/12/19 07:23:39;;;;;;;22.67;13.80;;;;;;;;;;5055447;28;20025;-60
2020/12/19 07:26:05;;;;;;;23.15;12.85;;;;;;;;;;5046586;28;20029;-60
2020/12/19 07:28:32;;;;;;;21.85;13.23;;;;;;;;;;5035404;28;20021;-60
2020/12/19 07:30:58;;;;;;;25.73;13.05;;;;;;;;;;5035241;28;20025;-60
2020/12/19 07:33:24;;;;;;;23.05;12.57;;;;;;;;;;5035193;28;20037;-60
2020/12/19 07:35:51;;;;;;;19.17;12.13;;;;;;;;;;5034991;28;20071;-59
2020/12/19 07:38:20;;;;;;;24.20;12.32;;;;;;;;;;5035424;28;20025;-60
2020/12/19 07:40:53;;;;;;;24.95;13.38;;;;;;;;;;5034942;28;20112;-60
2020/12/19 07:43:19;;;;;;;27.38;13.05;;;;;;;;;;5035190;28;20037;-60
2020/12/19 07:45:45;;;;;;;24.58;13.70;;;;;;;;;;5034992;28;20493;-60
2020/12/19 07:48:11;;;;;;;27.65;12.70;;;;;;;;;;5034808;28;20033;-60
2020/12/19 07:50:37;;;;;;;20.95;12.35;;;;;;;;;;5034832;28;20021;-60
2020/12/19 07:53:08;;;;;;;21.98;11.35;;;;;;;;;;5035095;28;20026;-60
2020/12/19 07:55:35;;;;;;;21.88;11.65;;;;;;;;;;5037670;28;20482;-59
2020/12/19 07:58:02;;;;;;;22.35;11.27;;;;;;;;;;5042284;28;20517;-59
2020/12/19 08:00:29;;;;;;;25.48;12.93;;;;;;;;;;5035083;28;20067;-59
2020/12/19 08:02:55;;;;;;;27.98;12.82;;;;;;;;;;5034763;28;20033;-60
2020/12/19 08:05:21;;;;;;;26.75;13.93;;;;;;;;;;5038825;28;20047;-59
2020/12/19 08:07:53;;;;;;;27.23;14.07;;;;;;;;;;5054728;28;20104;-60
2020/12/19 08:10:20;;;;;;;28.63;16.15;;;;;;;;;;5047871;28;20049;-59
2020/12/19 08:12:47;;;;;;;29.42;15.70;;;;;;;;;;5044163;28;20597;-58
2020/12/19 08:15:16;;;;;;;29.40;13.95;;;;;;;;;;5039494;28;20039;-58
2020/12/19 08:17:52;;;;;;;28.55;14.93;;;;;;;;;;5039495;28;20117;-59
2020/12/19 08:20:20;;;;;;;26.95;13.13;;;;;;;;;;5032717;28;20481;-59
2020/12/19 08:22:47;;;;;;;24.98;11.68;;;;;;;;;;5034381;28;20116;-60
2020/12/19 08:25:13;;;;;;;26.17;12.13;;;;;;;;;;5034318;28;20037;-59
2020/12/19 08:27:44;;;;;;;21.35;11.15;;;;;;;;;;5034054;28;20072;-59
2020/12/19 08:30:19;;;;;;;34.53;12.32;;;;;;;;;;5034545;28;20037;-59
2020/12/19 08:32:58;;;;;;;21.50;11.60;;;;;;;;;;5034270;28;20025;-60
2020/12/19 08:35:26;;;;;;;30.85;11.60;;;;;;;;;;5034112;28;20470;-59
2020/12/19 08:37:52;;;;;;;22.80;12.50;;;;;;;;;;5033922;28;20029;-60
2020/12/19 08:40:19;;;;;;;37.95;13.70;;;;;;;;;;5034250;28;20112;-60
2020/12/19 08:42:46;;;;;;;21.58;12.40;;;;;;;;;;5033745;28;20083;-60
2020/12/19 08:45:16;;;;;;;30.48;13.77;;;;;;;;;;5034239;28;20378;-60
2020/12/19 08:47:42;;;;;;;31.80;14.13;;;;;;;;;;5036625;28;20394;-60
2020/12/19 08:50:09;;;;;;;28.95;14.23;;;;;;;;;;5044409;28;20071;-60
2020/12/19 08:52:36;;;;;;;27.02;14.57;;;;;;;;;;5053894;28;20033;-60
2020/12/19 08:55:02;;;;;;;29.20;12.98;;;;;;;;;;5043264;28;20037;-59
2020/12/19 08:57:29;;;;;;;22.50;12.80;;;;;;;;;;5041584;28;20029;-59
2020/12/19 09:00:14;;;;;;;28.92;12.85;;;;;;;;;;5037599;28;20029;-59
2020/12/19 09:02:42;;;;;;;23.58;12.00;;;;;;;;;;5037717;28;20068;-59
2020/12/19 09:05:08;;;;;;;36.67;11.25;;;;;;;;;;5032019;28;20037;-59
2020/12/19 09:07:34;;;;;;;30.13;12.18;;;;;;;;;;5033347;28;20382;-59
2020/12/19 09:10:01;;;;;;;22.17;11.32;;;;;;;;;;5046580;28;20059;-59
2020/12/19 09:12:27;;;;;;;27.48;12.25;;;;;;;;;;5053246;28;20166;-60
2020/12/19 09:14:53;;;;;;;27.95;12.02;;;;;;;;;;5053414;28;20029;-60
2020/12/19 09:17:29;;;;;;;31.67;12.20;;;;;;;;;;5033423;28;20053;-60
2020/12/19 09:20:05;;;;;;;19.35;11.60;;;;;;;;;;5033375;28;20032;-60
2020/12/19 09:22:33;;;;;;;26.30;12.27;;;;;;;;;;5032747;28;20036;-60
2020/12/19 09:24:59;;;;;;;31.13;13.15;;;;;;;;;;5033072;28;20048;-60
2020/12/19 09:27:25;;;;;;;22.42;11.77;;;;;;;;;;5033234;28;20028;-60
2020/12/19 09:29:51;;;;;;;23.77;12.50;;;;;;;;;;5033223;28;20417;-60
2020/12/19 09:32:17;;;;;;;22.02;12.27;;;;;;;;;;5032650;28;20033;-60
2020/12/19 09:34:44;;;;;;;25.65;11.95;;;;;;;;;;5032995;28;20025;-60
2020/12/19 09:37:10;;;;;;;38.55;14.38;;;;;;;;;;5033079;28;20025;-60
2020/12/19 09:39:36;;;;;;;25.60;13.70;;;;;;;;;;5033327;28;20025;-59
2020/12/19 09:42:02;;;;;;;27.05;14.25;;;;;;;;;;5033255;28;20036;-60
2020/12/19 09:44:28;;;;;;;37.65;14.45;;;;;;;;;;5032997;28;20112;-60
2020/12/19 09:46:54;;;;;;;29.77;13.85;;;;;;;;;;5033005;28;20057;-60
2020/12/19 09:49:20;;;;;;;22.77;14.27;;;;;;;;;;5032874;28;20053;-60
2020/12/19 09:51:46;;;;;;;31.73;16.30;;;;;;;;;;5032937;28;20481;-60
2020/12/19 09:54:13;;;;;;;29.33;16.42;;;;;;;;;;5032910;28;20034;-60
2020/12/19 09:56:39;;;;;;;30.95;16.85;;;;;;;;;;5032984;28;20021;-60
2020/12/19 09:59:06;;;;;;;27.65;17.80;;;;;;;;;;5032794;28;20052;-60
2020/12/19 10:01:32;;;;;;;38.38;17.42;;;;;;;;;;5033149;28;20344;-60
2020/12/19 10:03:58;;;;;;;29.58;16.33;;;;;;;;;;5032748;28;20116;-60
2020/12/19 10:06:24;;;;;;;46.75;24.63;;;;;;;;;;5032985;28;20053;-60
2020/12/19 10:08:50;;;;;;;51.60;22.52;;;;;;;;;;5032741;28;20077;-60
2020/12/19 10:11:23;;;;;;;42.22;19.98;;;;;;;;;;5033137;28;20034;-60
2020/12/19 10:13:49;;;;;;;27.65;14.30;;;;;;;;;;5032766;28;20065;-60
2020/12/19 10:16:15;;;;;;;26.58;14.65;;;;;;;;;;5033157;28;20080;-60
2020/12/19 10:18:41;;;;;;;29.10;15.15;;;;;;;;;;5032696;28;20123;-60
2020/12/19 10:21:08;;;;;;;28.42;14.45;;;;;;;;;;5032761;28;20018;-60
2020/12/19 10:23:34;;;;;;;23.40;13.73;;;;;;;;;;5032907;28;20076;-60
2020/12/19 10:26:01;;;;;;;25.77;13.73;;;;;;;;;;5033003;28;20036;-60
2020/12/19 10:28:27;;;;;;;30.42;12.23;;;;;;;;;;5032903;28;20021;-59
2020/12/19 10:30:53;;;;;;;28.52;11.90;;;;;;;;;;5032940;28;20064;-60
2020/12/19 10:33:20;;;;;;;22.80;10.52;;;;;;;;;;5035066;28;20036;-60
2020/12/19 10:35:47;;;;;;;26.00;12.20;;;;;;;;;;5036619;28;20025;-60
2020/12/19 10:38:13;;;;;;;25.45;12.23;;;;;;;;;;5036612;28;20036;-60
2020/12/19 10:40:39;;;;;;;22.33;12.02;;;;;;;;;;5036397;28;20029;-60
2020/12/19 10:43:05;;;;;;;20.58;11.80;;;;;;;;;;5036160;28;20086;-59
2020/12/19 10:45:31;;;;;;;20.55;12.35;;;;;;;;;;5036059;28;20029;-60
2020/12/19 10:47:57;;;;;;;23.17;12.85;;;;;;;;;;5036116;28;20021;-60
2020/12/19 10:50:24;;;;;;;23.70;12.80;;;;;;;;;;5036322;28;20027;-60
2020/12/19 10:52:50;;;;;;;47.33;16.65;;;;;;;;;;5036333;28;20060;-60
2020/12/19 10:55:16;;;;;;;33.92;18.35;;;;;;;;;;5036142;28;20029;-60
2020/12/19 10:57:42;;;;;;;37.75;22.92;;;;;;;;;;5036243;28;20029;-60
2020/12/19 11:00:08;;;;;;;43.10;23.05;;;;;;;;;;5036202;28;20044;-60
2020/12/19 11:02:34;;;;;;;31.23;20.38;;;;;;;;;;5043881;28;20029;-60
2020/12/19 11:05:00;;;;;;;33.22;19.50;;;;;;;;;;5053389;28;20355;-60
2020/12/19 11:07:26;;;;;;;31.80;19.13;;;;;;;;;;5052975;28;20021;-60
2020/12/19 11:09:53;;;;;;;30.60;17.73;;;;;;;;;;5053549;28;20045;-59
2020/12/19 11:12:20;;;;;;;30.20;17.42;;;;;;;;;;5053666;28;20051;-60
2020/12/19 11:14:46;;;;;;;37.25;20.85;;;;;;;;;;5053799;28;20024;-60
2020/12/19 11:17:12;;;;;;;28.30;18.65;;;;;;;;;;5054078;28;20032;-60
2020/12/19 11:19:38;;;;;;;31.90;15.10;;;;;;;;;;5053690;28;20025;-60
2020/12/19 11:22:05;;;;;;;39.65;15.75;;;;;;;;;;5053209;28;20021;-60
2020/12/19 11:24:31;;;;;;;25.85;18.13;;;;;;;;;;5053460;28;20041;-60
2020/12/19 11:26:57;;;;;;;34.65;18.08;;;;;;;;;;5053839;28;20052;-59
2020/12/19 11:29:24;;;;;;;30.80;16.63;;;;;;;;;;5053635;28;20025;-59
2020/12/19 11:31:50;;;;;;;26.08;15.93;;;;;;;;;;5053133;28;20366;-59
2020/12/19 11:34:17;;;;;;;42.83;17.42;;;;;;;;;;5052800;28;20131;-60
2020/12/19 11:36:43;;;;;;;27.80;18.75;;;;;;;;;;5053094;28;20021;-59
2020/12/19 11:39:11;;;;;;;32.67;19.80;;;;;;;;;;5054129;28;20653;-59
2020/12/19 11:41:37;;;;;;;26.70;15.95;;;;;;;;;;5052790;28;20032;-60
2020/12/19 11:44:04;;;;;;;27.33;17.40;;;;;;;;;;5052337;28;20040;-61
2020/12/19 11:46:30;;;;;;;31.45;20.83;;;;;;;;;;5053211;28;20108;-61
2020/12/19 11:48:56;;;;;;;29.58;19.42;;;;;;;;;;5053614;28;20021;-60
2020/12/19 11:51:26;;;;;;;38.33;20.63;;;;;;;;;;5052998;28;20021;-60
2020/12/19 11:53:52;;;;;;;39.38;21.92;;;;;;;;;;5053235;28;20060;-60
2020/12/19 11:56:18;;;;;;;29.85;20.58;;;;;;;;;;5053205;28;20033;-60
2020/12/19 11:58:44;;;;;;;38.08;24.73;;;;;;;;;;5053108;28;20073;-60
2020/12/19 12:01:10;;;;;;;37.45;23.15;;;;;;;;;;5053119;28;20029;-60
2020/12/19 12:03:36;;;;;;;40.50;22.88;;;;;;;;;;5053058;28;20493;-60
2020/12/19 12:06:02;;;;;;;38.00;22.55;;;;;;;;;;5052911;28;20025;-60
2020/12/19 12:08:28;;;;;;;46.25;22.95;;;;;;;;;;5053003;28;20029;-60
2020/12/19 12:10:54;;;;;;;42.10;25.25;;;;;;;;;;5052884;28;20041;-60
2020/12/19 12:13:20;;;;;;;49.47;25.70;;;;;;;;;;5052980;28;20421;-60
2020/12/19 12:15:47;;;;;;;42.17;24.50;;;;;;;;;;5052967;28;20043;-60
2020/12/19 12:18:13;;;;;;;47.92;25.70;;;;;;;;;;5052765;28;20066;-60
2020/12/19 12:20:39;;;;;;;46.35;25.70;;;;;;;;;;5050093;28;20097;-60
2020/12/19 12:23:05;;;;;;;40.80;25.40;;;;;;;;;;5053730;28;20108;-60
2020/12/19 12:25:32;;;;;;;42.20;25.20;;;;;;;;;;5054476;28;20033;-60
2020/12/19 12:27:59;;;;;;;44.30;24.67;;;;;;;;;;5054513;28;20477;-60
2020/12/19 12:30:25;;;;;;;41.15;23.77;;;;;;;;;;5054567;28;20048;-59
2020/12/19 12:32:51;;;;;;;38.28;24.45;;;;;;;;;;5054104;28;20021;-60
2020/12/19 12:35:17;;;;;;;47.20;25.55;;;;;;;;;;5054041;28;20035;-60
2020/12/19 12:37:43;;;;;;;49.67;25.60;;;;;;;;;;5054021;28;20097;-60
2020/12/19 12:40:09;;;;;;;38.88;25.88;;;;;;;;;;5054244;28;20108;-60
2020/12/19 12:42:35;;;;;;;41.00;28.55;;;;;;;;;;5053855;28;20083;-60
2020/12/19 12:45:02;;;;;;;37.15;26.27;;;;;;;;;;5053747;28;20041;-60
2020/12/19 12:47:28;;;;;;;35.47;24.20;;;;;;;;;;5053987;28;20057;-60
2020/12/19 12:49:54;;;;;;;37.15;24.08;;;;;;;;;;5053844;28;20108;-60
2020/12/19 12:52:20;;;;;;;35.47;24.77;;;;;;;;;;5054017;28;20025;-60
2020/12/19 12:54:46;;;;;;;39.13;23.73;;;;;;;;;;5053805;28;20021;-60
2020/12/19 12:57:12;;;;;;;44.53;25.77;;;;;;;;;;5053957;28;20033;-60
2020/12/19 12:59:39;;;;;;;46.45;28.63;;;;;;;;;;5053699;28;20363;-60
2020/12/19 13:02:06;;;;;;;46.70;27.58;;;;;;;;;;5053758;28;20103;-60
2020/12/19 13:04:32;;;;;;;45.83;27.33;;;;;;;;;;5053691;28;20033;-60
2020/12/19 13:06:58;;;;;;;49.42;30.90;;;;;;;;;;5053805;28;20374;-60
2020/12/19 13:09:24;;;;;;;53.05;30.52;;;;;;;;;;5053504;28;20128;-60
2020/12/19 13:11:54;;;;;;;50.25;31.33;;;;;;;;;;5053377;28;20029;-60
2020/12/19 13:14:20;;;;;;;50.53;31.10;;;;;;;;;;5053662;28;20025;-60
2020/12/19 13:16:47;;;;;;;54.13;36.75;;;;;;;;;;5053748;28;20358;-60
2020/12/19 13:19:13;;;;;;;58.15;37.53;;;;;;;;;;5053388;28;20033;-60
2020/12/19 13:21:48;;;;;;;57.85;36.03;;;;;;;;;;5053195;28;20421;-60
2020/12/19 13:24:14;;;;;;;57.35;35.70;;;;;;;;;;5053341;28;20060;-60
2020/12/19 13:26:49;;;;;;;52.38;35.85;;;;;;;;;;5053233;28;20021;-60
2020/12/19 13:29:17;;;;;;;58.03;38.60;;;;;;;;;;5053487;28;20033;-60
2020/12/19 13:31:49;;;;;;;57.60;37.00;;;;;;;;;;5053523;28;20445;-61
2020/12/19 13:34:15;;;;;;;62.45;37.20;;;;;;;;;;5053302;28;20465;-60
2020/12/19 13:36:42;;;;;;;60.08;41.35;;;;;;;;;;5053110;28;20028;-60
2020/12/19 13:39:08;;;;;;;68.38;45.33;;;;;;;;;;5053071;28;20033;-60
2020/12/19 13:41:35;;;;;;;68.75;43.40;;;;;;;;;;5053419;28;20144;-60
2020/12/19 13:44:01;;;;;;;64.78;39.15;;;;;;;;;;5052953;28;20474;-60
2020/12/19 13:46:31;;;;;;;68.45;40.38;;;;;;;;;;5053021;28;20040;-60
2020/12/19 13:48:57;;;;;;;72.00;39.97;;;;;;;;;;5053122;28;20013;-60
2020/12/19 13:51:29;;;;;;;61.42;40.40;;;;;;;;;;5052679;28;20033;-60
2020/12/19 13:53:56;;;;;;;60.78;39.22;;;;;;;;;;5053020;28;20074;-60
2020/12/19 13:56:22;;;;;;;63.45;42.15;;;;;;;;;;5053178;28;20028;-60
2020/12/19 13:58:48;;;;;;;69.18;44.00;;;;;;;;;;5053118;28;20029;-61
2020/12/19 14:01:14;;;;;;;84.50;53.00;;;;;;;;;;5052967;28;20102;-60
2020/12/19 14:03:43;;;;;;;81.85;47.53;;;;;;;;;;5052638;28;20037;-60
2020/12/19 14:06:09;;;;;;;76.80;50.63;;;;;;;;;;5053004;28;20359;-60
2020/12/19 14:08:36;;;;;;;73.60;46.83;;;;;;;;;;5055649;28;20033;-60
2020/12/19 14:11:02;;;;;;;70.18;45.13;;;;;;;;;;5057019;28;20037;-60
2020/12/19 14:13:28;;;;;;;66.38;42.60;;;;;;;;;;5056790;28;20021;-60
2020/12/19 14:15:54;;;;;;;62.22;41.20;;;;;;;;;;5056639;28;20470;-60
2020/12/19 14:18:20;;;;;;;63.75;42.70;;;;;;;;;;5056727;28;20025;-60
2020/12/19 14:20:46;;;;;;;60.30;42.22;;;;;;;;;;5057059;28;20071;-60
2020/12/19 14:23:12;;;;;;;58.75;41.50;;;;;;;;;;5056391;28;20119;-60